Colfax, Indiana
Current Conditions -  °F | °C
As of 7:55 PM on Monday 22 Dec 2014 (Local Time) from KFKR Reporting Station
Light Rain Light Rain  
Wind Chill: 34°   Ceiling: 900
Heat Index: 41°   Visibility: 7mi
Dew Point: 41°   Wind: 12mph
Humidity: 100%   Direction: 90°E
Pressure: 29.71"   Gusts: NA
Location:  40.2°N, 86.67°W
Report Text: KFKR 230055Z AUTO 09010KT 7SM -RA BKN009 BKN014 BKN023 05/05 A2971 RMK AO2 P0001 T00480048
Loading
Personal Weather Stations






























Interactive Weather Map New forecast layout! Learn more

10-Day Weather Forecast

Advertisements
Track Severe Weather on mobile